sensor_id;sensor_type;location;lat;lon;timestamp;temperature;humidity
9820;DHT22;4949;48.482;9.206;2023-03-21T00:03:35;10.60;67.90
9820;DHT22;4949;48.482;9.206;2023-03-21T00:08:41;10.50;68.40
9820;DHT22;4949;48.482;9.206;2023-03-21T00:13:42;10.50;68.30
9820;DHT22;4949;48.482;9.206;2023-03-21T00:18:47;10.40;68.00
9820;DHT22;4949;48.482;9.206;2023-03-21T00:23:51;10.40;68.30
9820;DHT22;4949;48.482;9.206;2023-03-21T00:28:52;10.40;68.60
9820;DHT22;4949;48.482;9.206;2023-03-21T00:33:53;10.40;69.20
9820;DHT22;4949;48.482;9.206;2023-03-21T00:38:56;10.40;69.30
9820;DHT22;4949;48.482;9.206;2023-03-21T00:43:57;10.30;69.10
9820;DHT22;4949;48.482;9.206;2023-03-21T00:48:58;10.30;69.20
9820;DHT22;4949;48.482;9.206;2023-03-21T00:53:59;10.30;69.50
9820;DHT22;4949;48.482;9.206;2023-03-21T00:59:04;10.30;69.90
9820;DHT22;4949;48.482;9.206;2023-03-21T01:04:06;10.30;69.80
9820;DHT22;4949;48.482;9.206;2023-03-21T01:09:18;10.30;69.70
9820;DHT22;4949;48.482;9.206;2023-03-21T01:14:24;10.30;69.80
9820;DHT22;4949;48.482;9.206;2023-03-21T01:19:25;10.30;69.50
9820;DHT22;4949;48.482;9.206;2023-03-21T01:24:27;10.30;69.60
9820;DHT22;4949;48.482;9.206;2023-03-21T01:29:30;10.30;69.80
9820;DHT22;4949;48.482;9.206;2023-03-21T01:34:33;10.30;69.40
9820;DHT22;4949;48.482;9.206;2023-03-21T01:39:34;10.30;69.70
9820;DHT22;4949;48.482;9.206;2023-03-21T01:44:55;10.20;70.70
9820;DHT22;4949;48.482;9.206;2023-03-21T01:50:04;10.20;69.90
9820;DHT22;4949;48.482;9.206;2023-03-21T01:55:08;10.10;69.40
9820;DHT22;4949;48.482;9.206;2023-03-21T02:00:13;10.20;69.80
9820;DHT22;4949;48.482;9.206;2023-03-21T02:05:18;10.10;70.10
9820;DHT22;4949;48.482;9.206;2023-03-21T02:10:20;10.10;70.10
9820;DHT22;4949;48.482;9.206;2023-03-21T02:15:23;10.10;70.20
9820;DHT22;4949;48.482;9.206;2023-03-21T02:37:23;10.00;70.00
9820;DHT22;4949;48.482;9.206;2023-03-21T02:47:40;9.90;71.90
9820;DHT22;4949;48.482;9.206;2023-03-21T02:52:45;10.00;71.00
9820;DHT22;4949;48.482;9.206;2023-03-21T02:57:50;10.00;71.30
9820;DHT22;4949;48.482;9.206;2023-03-21T03:02:52;9.90;72.10
9820;DHT22;4949;48.482;9.206;2023-03-21T03:09:00;9.90;72.10
9820;DHT22;4949;48.482;9.206;2023-03-21T03:13:56;9.90;71.90
9820;DHT22;4949;48.482;9.206;2023-03-21T03:19:07;9.90;71.90
9820;DHT22;4949;48.482;9.206;2023-03-21T03:24:23;9.90;72.20
9820;DHT22;4949;48.482;9.206;2023-03-21T03:29:28;9.80;71.90
9820;DHT22;4949;48.482;9.206;2023-03-21T03:34:34;9.80;72.10
9820;DHT22;4949;48.482;9.206;2023-03-21T03:39:40;9.80;72.20
9820;DHT22;4949;48.482;9.206;2023-03-21T03:44:45;9.80;72.10
9820;DHT22;4949;48.482;9.206;2023-03-21T03:50:07;9.70;72.30
9820;DHT22;4949;48.482;9.206;2023-03-21T03:55:17;9.70;72.30
9820;DHT22;4949;48.482;9.206;2023-03-21T04:00:18;9.60;72.80
9820;DHT22;4949;48.482;9.206;2023-03-21T04:05:20;9.60;72.80
9820;DHT22;4949;48.482;9.206;2023-03-21T04:10:21;9.50;73.00
9820;DHT22;4949;48.482;9.206;2023-03-21T04:15:24;9.50;73.10
9820;DHT22;4949;48.482;9.206;2023-03-21T04:20:27;9.50;73.10
9820;DHT22;4949;48.482;9.206;2023-03-21T04:25:28;9.50;73.10
9820;DHT22;4949;48.482;9.206;2023-03-21T04:30:30;9.50;73.10
9820;DHT22;4949;48.482;9.206;2023-03-21T04:35:33;9.60;73.90
9820;DHT22;4949;48.482;9.206;2023-03-21T04:40:35;9.40;74.00
9820;DHT22;4949;48.482;9.206;2023-03-21T04:45:38;9.30;74.10
9820;DHT22;4949;48.482;9.206;2023-03-21T04:50:39;9.30;74.20
9820;DHT22;4949;48.482;9.206;2023-03-21T04:55:42;9.30;74.20
9820;DHT22;4949;48.482;9.206;2023-03-21T05:00:45;9.30;74.20
9820;DHT22;4949;48.482;9.206;2023-03-21T05:05:46;9.00;74.20
9820;DHT22;4949;48.482;9.206;2023-03-21T05:10:49;9.30;74.80
9820;DHT22;4949;48.482;9.206;2023-03-21T05:15:50;9.40;74.90
9820;DHT22;4949;48.482;9.206;2023-03-21T05:20:52;9.00;75.10
9820;DHT22;4949;48.482;9.206;2023-03-21T05:25:58;9.00;75.20
9820;DHT22;4949;48.482;9.206;2023-03-21T05:30:59;9.00;74.90
9820;DHT22;4949;48.482;9.206;2023-03-21T05:36:00;9.00;74.80
9820;DHT22;4949;48.482;9.206;2023-03-21T05:41:01;9.00;74.80
9820;DHT22;4949;48.482;9.206;2023-03-21T05:46:01;9.00;75.20
9820;DHT22;4949;48.482;9.206;2023-03-21T05:51:04;9.00;75.40
9820;DHT22;4949;48.482;9.206;2023-03-21T05:56:06;9.00;75.40
9820;DHT22;4949;48.482;9.206;2023-03-21T06:01:08;8.90;75.20
9820;DHT22;4949;48.482;9.206;2023-03-21T06:06:09;8.90;76.20
9820;DHT22;4949;48.482;9.206;2023-03-21T06:11:23;9.00;75.20
9820;DHT22;4949;48.482;9.206;2023-03-21T06:16:28;9.10;75.00
9820;DHT22;4949;48.482;9.206;2023-03-21T06:21:29;9.10;74.90
9820;DHT22;4949;48.482;9.206;2023-03-21T06:26:32;9.10;75.40
9820;DHT22;4949;48.482;9.206;2023-03-21T06:31:33;9.20;74.90
9820;DHT22;4949;48.482;9.206;2023-03-21T06:36:34;9.30;74.80
9820;DHT22;4949;48.482;9.206;2023-03-21T06:41:37;9.10;74.70
9820;DHT22;4949;48.482;9.206;2023-03-21T06:46:38;9.00;74.90
9820;DHT22;4949;48.482;9.206;2023-03-21T06:51:39;9.00;74.90
9820;DHT22;4949;48.482;9.206;2023-03-21T06:56:42;9.10;74.70
9820;DHT22;4949;48.482;9.206;2023-03-21T07:01:45;9.30;74.50
9820;DHT22;4949;48.482;9.206;2023-03-21T07:06:48;9.10;74.30
9820;DHT22;4949;48.482;9.206;2023-03-21T07:11:49;9.20;74.10
9820;DHT22;4949;48.482;9.206;2023-03-21T07:16:52;9.50;75.40
9820;DHT22;4949;48.482;9.206;2023-03-21T07:21:53;9.90;75.40
9820;DHT22;4949;48.482;9.206;2023-03-21T07:26:54;10.20;69.80
9820;DHT22;4949;48.482;9.206;2023-03-21T07:31:57;10.10;69.80
9820;DHT22;4949;48.482;9.206;2023-03-21T07:36:58;10.10;70.10
9820;DHT22;4949;48.482;9.206;2023-03-21T07:42:00;10.20;70.50
9820;DHT22;4949;48.482;9.206;2023-03-21T07:47:01;10.20;70.10
9820;DHT22;4949;48.482;9.206;2023-03-21T07:52:02;10.40;70.30
9820;DHT22;4949;48.482;9.206;2023-03-21T07:57:03;10.20;69.80
9820;DHT22;4949;48.482;9.206;2023-03-21T08:02:04;10.30;69.50
9820;DHT22;4949;48.482;9.206;2023-03-21T08:07:08;10.50;69.00
9820;DHT22;4949;48.482;9.206;2023-03-21T08:12:09;10.70;68.50
9820;DHT22;4949;48.482;9.206;2023-03-21T08:17:10;10.90;68.10
9820;DHT22;4949;48.482;9.206;2023-03-21T08:22:11;10.90;67.70
9820;DHT22;4949;48.482;9.206;2023-03-21T08:27:12;11.00;67.50
9820;DHT22;4949;48.482;9.206;2023-03-21T08:32:13;11.10;67.10
9820;DHT22;4949;48.482;9.206;2023-03-21T08:37:16;11.20;66.40
9820;DHT22;4949;48.482;9.206;2023-03-21T08:42:17;11.30;65.90
9820;DHT22;4949;48.482;9.206;2023-03-21T08:47:18;11.50;65.30
9820;DHT22;4949;48.482;9.206;2023-03-21T08:52:19;11.60;64.50
9820;DHT22;4949;48.482;9.206;2023-03-21T08:57:22;11.60;63.80
9820;DHT22;4949;48.482;9.206;2023-03-21T09:02:25;11.70;63.60
9820;DHT22;4949;48.482;9.206;2023-03-21T09:07:26;12.00;63.70
9820;DHT22;4949;48.482;9.206;2023-03-21T09:12:27;12.10;62.90
9820;DHT22;4949;48.482;9.206;2023-03-21T09:17:28;12.20;62.10
9820;DHT22;4949;48.482;9.206;2023-03-21T09:22:31;12.20;61.70
9820;DHT22;4949;48.482;9.206;2023-03-21T09:27:31;12.40;61.40
9820;DHT22;4949;48.482;9.206;2023-03-21T09:32:33;12.50;60.60
9820;DHT22;4949;48.482;9.206;2023-03-21T09:37:34;12.70;59.50
9820;DHT22;4949;48.482;9.206;2023-03-21T09:42:51;12.80;59.10
9820;DHT22;4949;48.482;9.206;2023-03-21T09:48:00;12.90;59.30
9820;DHT22;4949;48.482;9.206;2023-03-21T09:53:28;13.10;58.70
9820;DHT22;4949;48.482;9.206;2023-03-21T09:58:34;13.20;57.70
9820;DHT22;4949;48.482;9.206;2023-03-21T10:03:40;13.30;57.80
9820;DHT22;4949;48.482;9.206;2023-03-21T10:08:45;13.40;57.40
9820;DHT22;4949;48.482;9.206;2023-03-21T10:13:58;13.70;57.20
9820;DHT22;4949;48.482;9.206;2023-03-21T10:19:09;14.00;57.20
9820;DHT22;4949;48.482;9.206;2023-03-21T10:24:23;14.30;56.50
9820;DHT22;4949;48.482;9.206;2023-03-21T10:29:39;14.60;55.50
9820;DHT22;4949;48.482;9.206;2023-03-21T10:34:52;14.80;54.90
9820;DHT22;4949;48.482;9.206;2023-03-21T10:39:55;15.10;54.40
9820;DHT22;4949;48.482;9.206;2023-03-21T10:44:57;15.40;52.90
9820;DHT22;4949;48.482;9.206;2023-03-21T10:50:07;15.30;53.10
9820;DHT22;4949;48.482;9.206;2023-03-21T10:55:23;15.40;52.90
9820;DHT22;4949;48.482;9.206;2023-03-21T11:00:29;15.70;52.80
9820;DHT22;4949;48.482;9.206;2023-03-21T11:05:39;15.80;52.10
9820;DHT22;4949;48.482;9.206;2023-03-21T11:11:04;15.90;51.60
9820;DHT22;4949;48.482;9.206;2023-03-21T11:16:44;16.00;51.00
9820;DHT22;4949;48.482;9.206;2023-03-21T11:21:47;16.00;51.20
9820;DHT22;4949;48.482;9.206;2023-03-21T11:26:48;16.10;50.80
9820;DHT22;4949;48.482;9.206;2023-03-21T11:31:50;16.20;50.20
9820;DHT22;4949;48.482;9.206;2023-03-21T11:36:58;16.30;51.10
9820;DHT22;4949;48.482;9.206;2023-03-21T11:42:00;16.30;51.10
9820;DHT22;4949;48.482;9.206;2023-03-21T11:47:01;16.30;51.30
9820;DHT22;4949;48.482;9.206;2023-03-21T12:02:53;16.20;51.50
9820;DHT22;4949;48.482;9.206;2023-03-21T12:08:40;16.40;50.80
9820;DHT22;4949;48.482;9.206;2023-03-21T12:13:57;16.40;51.20
9820;DHT22;4949;48.482;9.206;2023-03-21T12:24:55;16.30;51.60
9820;DHT22;4949;48.482;9.206;2023-03-21T12:36:05;16.50;52.30
9820;DHT22;4949;48.482;9.206;2023-03-21T12:41:32;16.60;51.80
9820;DHT22;4949;48.482;9.206;2023-03-21T12:47:01;16.80;51.30
9820;DHT22;4949;48.482;9.206;2023-03-21T12:52:11;16.90;51.40
9820;DHT22;4949;48.482;9.206;2023-03-21T13:02:19;16.90;50.80
9820;DHT22;4949;48.482;9.206;2023-03-21T13:07:23;17.00;51.00
9820;DHT22;4949;48.482;9.206;2023-03-21T13:17:51;17.30;50.40
9820;DHT22;4949;48.482;9.206;2023-03-21T13:23:13;17.60;49.80
9820;DHT22;4949;48.482;9.206;2023-03-21T13:33:31;18.00;48.40
9820;DHT22;4949;48.482;9.206;2023-03-21T13:38:35;18.20;48.30
9820;DHT22;4949;48.482;9.206;2023-03-21T13:44:05;18.40;47.00
9820;DHT22;4949;48.482;9.206;2023-03-21T13:49:25;18.50;47.50
9820;DHT22;4949;48.482;9.206;2023-03-21T13:54:56;18.50;46.60
9820;DHT22;4949;48.482;9.206;2023-03-21T14:00:36;18.60;46.10
9820;DHT22;4949;48.482;9.206;2023-03-21T14:05:39;18.60;45.40
9820;DHT22;4949;48.482;9.206;2023-03-21T14:10:44;18.50;45.70
9820;DHT22;4949;48.482;9.206;2023-03-21T14:15:52;18.40;46.00
9820;DHT22;4949;48.482;9.206;2023-03-21T14:20:57;18.30;44.90
9820;DHT22;4949;48.482;9.206;2023-03-21T14:25:59;18.10;46.00
9820;DHT22;4949;48.482;9.206;2023-03-21T14:31:00;18.30;46.20
9820;DHT22;4949;48.482;9.206;2023-03-21T14:36:11;18.40;46.10
9820;DHT22;4949;48.482;9.206;2023-03-21T14:41:24;18.40;44.40
9820;DHT22;4949;48.482;9.206;2023-03-21T14:46:28;18.10;43.20
9820;DHT22;4949;48.482;9.206;2023-03-21T14:51:29;18.00;43.30
9820;DHT22;4949;48.482;9.206;2023-03-21T14:56:33;18.10;43.50
9820;DHT22;4949;48.482;9.206;2023-03-21T15:01:34;18.10;42.90
9820;DHT22;4949;48.482;9.206;2023-03-21T15:06:55;18.00;41.90
9820;DHT22;4949;48.482;9.206;2023-03-21T15:11:57;18.10;42.10
9820;DHT22;4949;48.482;9.206;2023-03-21T15:17:00;18.10;41.10
9820;DHT22;4949;48.482;9.206;2023-03-21T15:27:40;18.10;39.80
9820;DHT22;4949;48.482;9.206;2023-03-21T15:32:41;18.10;40.00
9820;DHT22;4949;48.482;9.206;2023-03-21T15:37:42;18.00;39.90
9820;DHT22;4949;48.482;9.206;2023-03-21T15:42:43;17.80;40.20
9820;DHT22;4949;48.482;9.206;2023-03-21T15:53:09;17.60;41.70
9820;DHT22;4949;48.482;9.206;2023-03-21T15:58:19;17.40;42.00
9820;DHT22;4949;48.482;9.206;2023-03-21T16:03:29;17.20;42.40
9820;DHT22;4949;48.482;9.206;2023-03-21T16:08:35;17.10;42.40
9820;DHT22;4949;48.482;9.206;2023-03-21T16:13:39;16.90;43.20
9820;DHT22;4949;48.482;9.206;2023-03-21T16:18:40;16.90;43.90
9820;DHT22;4949;48.482;9.206;2023-03-21T16:23:41;16.90;44.10
9820;DHT22;4949;48.482;9.206;2023-03-21T16:28:43;17.00;43.40
9820;DHT22;4949;48.482;9.206;2023-03-21T16:33:46;17.00;43.80
9820;DHT22;4949;48.482;9.206;2023-03-21T16:38:49;16.90;44.40
9820;DHT22;4949;48.482;9.206;2023-03-21T16:43:54;16.90;44.80
9820;DHT22;4949;48.482;9.206;2023-03-21T16:48:57;16.90;45.20
9820;DHT22;4949;48.482;9.206;2023-03-21T16:53:58;17.00;45.20
9820;DHT22;4949;48.482;9.206;2023-03-21T16:58:59;16.90;45.60
9820;DHT22;4949;48.482;9.206;2023-03-21T17:04:00;16.80;45.40
9820;DHT22;4949;48.482;9.206;2023-03-21T17:09:02;16.70;45.90
9820;DHT22;4949;48.482;9.206;2023-03-21T17:14:03;16.70;46.20
9820;DHT22;4949;48.482;9.206;2023-03-21T17:19:12;16.70;46.60
9820;DHT22;4949;48.482;9.206;2023-03-21T17:24:14;16.60;46.50
9820;DHT22;4949;48.482;9.206;2023-03-21T17:29:16;16.50;46.80
9820;DHT22;4949;48.482;9.206;2023-03-21T17:34:17;16.50;46.90
9820;DHT22;4949;48.482;9.206;2023-03-21T17:39:24;16.40;47.10
9820;DHT22;4949;48.482;9.206;2023-03-21T17:44:26;16.40;47.50
9820;DHT22;4949;48.482;9.206;2023-03-21T17:49:26;16.40;47.70
9820;DHT22;4949;48.482;9.206;2023-03-21T17:54:32;16.30;48.00
9820;DHT22;4949;48.482;9.206;2023-03-21T17:59:35;16.30;48.40
9820;DHT22;4949;48.482;9.206;2023-03-21T18:04:36;16.30;48.20
9820;DHT22;4949;48.482;9.206;2023-03-21T18:09:36;16.20;48.40
9820;DHT22;4949;48.482;9.206;2023-03-21T18:14:37;16.00;48.80
9820;DHT22;4949;48.482;9.206;2023-03-21T18:19:40;16.00;48.50
9820;DHT22;4949;48.482;9.206;2023-03-21T18:24:41;15.90;48.70
9820;DHT22;4949;48.482;9.206;2023-03-21T18:29:44;15.80;49.20
9820;DHT22;4949;48.482;9.206;2023-03-21T18:34:47;15.70;49.20
9820;DHT22;4949;48.482;9.206;2023-03-21T18:39:48;15.60;49.60
9820;DHT22;4949;48.482;9.206;2023-03-21T18:44:49;15.60;50.00
9820;DHT22;4949;48.482;9.206;2023-03-21T18:49:50;15.60;50.20
9820;DHT22;4949;48.482;9.206;2023-03-21T18:54:52;15.60;50.70
9820;DHT22;4949;48.482;9.206;2023-03-21T18:59:53;15.40;51.50
9820;DHT22;4949;48.482;9.206;2023-03-21T19:04:59;15.30;52.10
9820;DHT22;4949;48.482;9.206;2023-03-21T19:10:03;15.30;52.40
9820;DHT22;4949;48.482;9.206;2023-03-21T19:15:06;15.30;52.60
9820;DHT22;4949;48.482;9.206;2023-03-21T19:20:09;15.20;52.90
9820;DHT22;4949;48.482;9.206;2023-03-21T19:25:14;15.10;53.50
9820;DHT22;4949;48.482;9.206;2023-03-21T19:30:15;15.00;53.70
9820;DHT22;4949;48.482;9.206;2023-03-21T19:35:16;15.00;53.40
9820;DHT22;4949;48.482;9.206;2023-03-21T19:40:20;14.90;53.80
9820;DHT22;4949;48.482;9.206;2023-03-21T19:45:20;14.80;53.60
9820;DHT22;4949;48.482;9.206;2023-03-21T19:50:26;14.90;53.30
9820;DHT22;4949;48.482;9.206;2023-03-21T19:55:30;14.80;52.50
9820;DHT22;4949;48.482;9.206;2023-03-21T20:00:34;14.80;52.60
9820;DHT22;4949;48.482;9.206;2023-03-21T20:05:35;14.80;52.60
9820;DHT22;4949;48.482;9.206;2023-03-21T20:10:36;14.70;52.00
9820;DHT22;4949;48.482;9.206;2023-03-21T20:15:37;14.80;53.30
9820;DHT22;4949;48.482;9.206;2023-03-21T20:20:40;14.60;53.70
9820;DHT22;4949;48.482;9.206;2023-03-21T20:25:42;14.50;54.10
9820;DHT22;4949;48.482;9.206;2023-03-21T20:30:53;14.60;53.10
9820;DHT22;4949;48.482;9.206;2023-03-21T20:36:01;14.50;51.40
9820;DHT22;4949;48.482;9.206;2023-03-21T20:41:05;14.30;51.80
9820;DHT22;4949;48.482;9.206;2023-03-21T20:46:08;14.30;52.40
9820;DHT22;4949;48.482;9.206;2023-03-21T20:51:10;14.20;53.20
9820;DHT22;4949;48.482;9.206;2023-03-21T20:56:15;14.10;53.50
9820;DHT22;4949;48.482;9.206;2023-03-21T21:01:15;14.10;53.50
9820;DHT22;4949;48.482;9.206;2023-03-21T21:06:18;14.10;54.00
9820;DHT22;4949;48.482;9.206;2023-03-21T21:11:21;14.10;54.40
9820;DHT22;4949;48.482;9.206;2023-03-21T21:16:22;14.00;55.40
9820;DHT22;4949;48.482;9.206;2023-03-21T21:21:25;13.90;56.50
9820;DHT22;4949;48.482;9.206;2023-03-21T21:26:27;13.80;57.10
9820;DHT22;4949;48.482;9.206;2023-03-21T21:31:28;13.70;56.90
9820;DHT22;4949;48.482;9.206;2023-03-21T21:36:33;13.60;56.70
9820;DHT22;4949;48.482;9.206;2023-03-21T21:41:34;13.60;56.80
9820;DHT22;4949;48.482;9.206;2023-03-21T21:46:35;13.60;56.30
9820;DHT22;4949;48.482;9.206;2023-03-21T21:51:39;13.60;56.80
9820;DHT22;4949;48.482;9.206;2023-03-21T21:56:43;13.60;57.60
9820;DHT22;4949;48.482;9.206;2023-03-21T22:01:47;13.80;57.40
9820;DHT22;4949;48.482;9.206;2023-03-21T22:06:51;13.40;57.80
9820;DHT22;4949;48.482;9.206;2023-03-21T22:11:55;13.30;57.90
9820;DHT22;4949;48.482;9.206;2023-03-21T22:16:56;13.40;57.20
9820;DHT22;4949;48.482;9.206;2023-03-21T22:21:59;13.40;56.80
9820;DHT22;4949;48.482;9.206;2023-03-21T22:26:59;13.30;57.40
9820;DHT22;4949;48.482;9.206;2023-03-21T22:32:00;13.20;58.20
9820;DHT22;4949;48.482;9.206;2023-03-21T22:37:03;13.10;58.80
9820;DHT22;4949;48.482;9.206;2023-03-21T22:42:04;13.20;59.10
9820;DHT22;4949;48.482;9.206;2023-03-21T22:47:07;13.00;59.50
9820;DHT22;4949;48.482;9.206;2023-03-21T22:52:10;13.10;59.70
9820;DHT22;4949;48.482;9.206;2023-03-21T22:57:13;12.90;59.70
9820;DHT22;4949;48.482;9.206;2023-03-21T23:02:15;13.10;60.10
9820;DHT22;4949;48.482;9.206;2023-03-21T23:07:18;12.70;59.90
9820;DHT22;4949;48.482;9.206;2023-03-21T23:12:21;12.70;59.70
9820;DHT22;4949;48.482;9.206;2023-03-21T23:17:22;12.80;58.70
9820;DHT22;4949;48.482;9.206;2023-03-21T23:22:23;12.80;59.00
9820;DHT22;4949;48.482;9.206;2023-03-21T23:27:24;12.90;58.20
9820;DHT22;4949;48.482;9.206;2023-03-21T23:32:25;13.00;57.60
9820;DHT22;4949;48.482;9.206;2023-03-21T23:37:26;13.00;57.40
9820;DHT22;4949;48.482;9.206;2023-03-21T23:42:29;13.00;57.50
9820;DHT22;4949;48.482;9.206;2023-03-21T23:47:35;13.00;57.20
9820;DHT22;4949;48.482;9.206;2023-03-21T23:52:36;13.10;57.10
9820;DHT22;4949;48.482;9.206;2023-03-21T23:57:37;13.10;56.60
